sensor_id;sensor_type;location;lat;lon;timestamp;P1;P2;P0
26185;PMS7003;20067;48.764;9.176;2024-02-14T00:01:22;19.00;12.00;5.25
26185;PMS7003;20067;48.764;9.176;2024-02-14T00:03:48;12.00;11.25;5.00
26185;PMS7003;20067;48.764;9.176;2024-02-14T00:06:14;11.00;10.00;5.00
26185;PMS7003;20067;48.764;9.176;2024-02-14T00:08:40;11.00;9.50;5.00
26185;PMS7003;20067;48.764;9.176;2024-02-14T00:11:05;14.50;12.75;5.25
26185;PMS7003;20067;48.764;9.176;2024-02-14T00:13:31;13.50;12.00;5.25
26185;PMS7003;20067;48.764;9.176;2024-02-14T00:15:59;12.25;11.75;5.00
26185;PMS7003;20067;48.764;9.176;2024-02-14T00:18:26;12.25;12.00;5.00
26185;PMS7003;20067;48.764;9.176;2024-02-14T00:20:51;12.75;12.00;5.00
26185;PMS7003;20067;48.764;9.176;2024-02-14T00:23:17;12.75;10.00;5.00
26185;PMS7003;20067;48.764;9.176;2024-02-14T00:25:42;14.25;10.00;5.00
26185;PMS7003;20067;48.764;9.176;2024-02-14T00:28:08;14.00;10.00;3.50
26185;PMS7003;20067;48.764;9.176;2024-02-14T00:30:33;9.50;9.50;3.50
26185;PMS7003;20067;48.764;9.176;2024-02-14T00:32:59;17.00;12.75;5.50
26185;PMS7003;20067;48.764;9.176;2024-02-14T00:35:26;10.50;10.00;4.00
26185;PMS7003;20067;48.764;9.176;2024-02-14T00:37:51;12.75;10.00;5.00
26185;PMS7003;20067;48.764;9.176;2024-02-14T00:40:17;9.00;8.00;3.00
26185;PMS7003;20067;48.764;9.176;2024-02-14T00:42:43;10.25;8.50;3.50
26185;PMS7003;20067;48.764;9.176;2024-02-14T00:45:08;12.75;12.00;5.00
26185;PMS7003;20067;48.764;9.176;2024-02-14T00:47:34;8.00;8.00;3.00
26185;PMS7003;20067;48.764;9.176;2024-02-14T00:50:01;9.50;9.50;5.00
26185;PMS7003;20067;48.764;9.176;2024-02-14T00:52:29;12.00;10.25;3.00
26185;PMS7003;20067;48.764;9.176;2024-02-14T00:54:55;8.00;8.00;3.50
26185;PMS7003;20067;48.764;9.176;2024-02-14T00:57:21;12.00;12.00;5.25
26185;PMS7003;20067;48.764;9.176;2024-02-14T00:59:50;11.25;10.00;3.50
26185;PMS7003;20067;48.764;9.176;2024-02-14T01:02:16;10.00;10.00;5.00
26185;PMS7003;20067;48.764;9.176;2024-02-14T01:04:43;9.50;9.50;4.50
26185;PMS7003;20067;48.764;9.176;2024-02-14T01:07:08;11.00;10.25;5.00
26185;PMS7003;20067;48.764;9.176;2024-02-14T01:09:34;11.00;10.50;5.00
26185;PMS7003;20067;48.764;9.176;2024-02-14T01:12:01;14.00;10.00;4.00
26185;PMS7003;20067;48.764;9.176;2024-02-14T01:14:27;12.50;10.50;5.00
26185;PMS7003;20067;48.764;9.176;2024-02-14T01:16:52;11.50;8.50;4.00
26185;PMS7003;20067;48.764;9.176;2024-02-14T01:19:19;10.00;9.50;4.25
26185;PMS7003;20067;48.764;9.176;2024-02-14T01:21:44;8.75;8.00;3.00
26185;PMS7003;20067;48.764;9.176;2024-02-14T01:24:13;10.00;10.00;5.00
26185;PMS7003;20067;48.764;9.176;2024-02-14T01:26:39;11.00;11.00;5.00
26185;PMS7003;20067;48.764;9.176;2024-02-14T01:29:05;8.50;8.50;4.75
26185;PMS7003;20067;48.764;9.176;2024-02-14T01:31:31;8.25;8.25;3.25
26185;PMS7003;20067;48.764;9.176;2024-02-14T01:33:58;6.50;6.50;2.50
26185;PMS7003;20067;48.764;9.176;2024-02-14T01:36:24;10.75;9.75;5.00
26185;PMS7003;20067;48.764;9.176;2024-02-14T01:38:49;12.50;8.00;3.00
26185;PMS7003;20067;48.764;9.176;2024-02-14T01:41:15;10.00;8.75;3.00
26185;PMS7003;20067;48.764;9.176;2024-02-14T01:43:41;7.50;7.50;3.00
26185;PMS7003;20067;48.764;9.176;2024-02-14T01:46:06;11.00;8.00;3.00
26185;PMS7003;20067;48.764;9.176;2024-02-14T01:48:35;10.50;9.75;3.00
26185;PMS7003;20067;48.764;9.176;2024-02-14T01:51:04;10.00;8.75;3.00
26185;PMS7003;20067;48.764;9.176;2024-02-14T01:53:33;11.00;10.75;5.50
26185;PMS7003;20067;48.764;9.176;2024-02-14T01:56:02;10.25;10.25;4.75
26185;PMS7003;20067;48.764;9.176;2024-02-14T01:58:29;13.50;10.00;4.25
26185;PMS7003;20067;48.764;9.176;2024-02-14T02:00:55;9.25;7.50;3.00
26185;PMS7003;20067;48.764;9.176;2024-02-14T02:03:23;11.00;9.25;3.00
26185;PMS7003;20067;48.764;9.176;2024-02-14T02:05:50;10.75;10.75;3.00
26185;PMS7003;20067;48.764;9.176;2024-02-14T02:08:16;10.00;8.00;5.00
26185;PMS7003;20067;48.764;9.176;2024-02-14T02:10:42;10.00;10.00;4.50
26185;PMS7003;20067;48.764;9.176;2024-02-14T02:13:08;7.50;7.50;3.00
26185;PMS7003;20067;48.764;9.176;2024-02-14T02:15:34;8.50;8.00;3.00
26185;PMS7003;20067;48.764;9.176;2024-02-14T02:18:00;9.25;9.25;3.00
26185;PMS7003;20067;48.764;9.176;2024-02-14T02:20:30;12.25;10.75;5.00
26185;PMS7003;20067;48.764;9.176;2024-02-14T02:22:57;11.00;8.75;4.25
26185;PMS7003;20067;48.764;9.176;2024-02-14T02:25:23;10.00;8.00;3.00
26185;PMS7003;20067;48.764;9.176;2024-02-14T02:27:49;10.00;10.00;2.00
26185;PMS7003;20067;48.764;9.176;2024-02-14T02:30:15;10.00;6.00;3.00
26185;PMS7003;20067;48.764;9.176;2024-02-14T02:32:41;12.50;10.25;4.25
26185;PMS7003;20067;48.764;9.176;2024-02-14T02:35:07;6.00;6.00;3.00
26185;PMS7003;20067;48.764;9.176;2024-02-14T02:37:34;8.00;8.00;3.50
26185;PMS7003;20067;48.764;9.176;2024-02-14T02:40:00;9.75;8.25;3.00
26185;PMS7003;20067;48.764;9.176;2024-02-14T02:42:26;9.50;8.00;3.00
26185;PMS7003;20067;48.764;9.176;2024-02-14T02:44:52;9.75;9.00;3.00
26185;PMS7003;20067;48.764;9.176;2024-02-14T02:47:18;8.50;8.50;3.25
26185;PMS7003;20067;48.764;9.176;2024-02-14T02:49:43;8.75;8.00;3.00
26185;PMS7003;20067;48.764;9.176;2024-02-14T02:52:10;8.00;8.00;3.00
26185;PMS7003;20067;48.764;9.176;2024-02-14T02:54:36;7.50;7.50;3.00
26185;PMS7003;20067;48.764;9.176;2024-02-14T02:57:02;10.50;8.00;3.00
26185;PMS7003;20067;48.764;9.176;2024-02-14T02:59:30;11.00;8.75;3.00
26185;PMS7003;20067;48.764;9.176;2024-02-14T03:01:57;8.00;8.00;3.00
26185;PMS7003;20067;48.764;9.176;2024-02-14T03:04:24;8.00;6.50;3.00
26185;PMS7003;20067;48.764;9.176;2024-02-14T03:06:49;8.50;8.00;2.00
26185;PMS7003;20067;48.764;9.176;2024-02-14T03:09:15;9.00;7.00;3.00
26185;PMS7003;20067;48.764;9.176;2024-02-14T03:11:45;9.00;8.75;3.50
26185;PMS7003;20067;48.764;9.176;2024-02-14T03:14:12;9.00;8.25;3.50
26185;PMS7003;20067;48.764;9.176;2024-02-14T03:16:38;8.00;8.00;3.00
26185;PMS7003;20067;48.764;9.176;2024-02-14T03:19:04;8.25;8.25;2.50
26185;PMS7003;20067;48.764;9.176;2024-02-14T03:21:30;10.00;9.00;4.00
26185;PMS7003;20067;48.764;9.176;2024-02-14T03:24:03;8.75;8.00;3.00
26185;PMS7003;20067;48.764;9.176;2024-02-14T03:26:30;9.50;8.00;3.00
26185;PMS7003;20067;48.764;9.176;2024-02-14T03:29:02;10.00;9.00;3.00
26185;PMS7003;20067;48.764;9.176;2024-02-14T03:31:31;8.50;8.50;3.00
26185;PMS7003;20067;48.764;9.176;2024-02-14T03:33:57;11.25;11.25;5.50
26185;PMS7003;20067;48.764;9.176;2024-02-14T03:36:23;10.00;9.00;4.50
26185;PMS7003;20067;48.764;9.176;2024-02-14T03:38:49;9.00;9.00;3.50
26185;PMS7003;20067;48.764;9.176;2024-02-14T03:41:15;10.00;8.50;3.50
26185;PMS7003;20067;48.764;9.176;2024-02-14T03:43:40;8.75;8.00;3.00
26185;PMS7003;20067;48.764;9.176;2024-02-14T03:46:06;8.00;8.00;3.25
26185;PMS7003;20067;48.764;9.176;2024-02-14T03:48:31;10.50;8.75;3.00
26185;PMS7003;20067;48.764;9.176;2024-02-14T03:50:57;8.75;8.75;4.00
26185;PMS7003;20067;48.764;9.176;2024-02-14T03:53:23;15.50;9.50;4.00
26185;PMS7003;20067;48.764;9.176;2024-02-14T03:55:49;14.00;11.00;3.00
26185;PMS7003;20067;48.764;9.176;2024-02-14T03:58:15;9.50;9.50;3.00
26185;PMS7003;20067;48.764;9.176;2024-02-14T04:00:47;9.50;9.50;4.00
26185;PMS7003;20067;48.764;9.176;2024-02-14T04:03:15;8.25;7.50;3.00
26185;PMS7003;20067;48.764;9.176;2024-02-14T04:05:41;8.00;8.00;3.00
26185;PMS7003;20067;48.764;9.176;2024-02-14T04:08:07;9.50;8.00;3.00
26185;PMS7003;20067;48.764;9.176;2024-02-14T04:10:35;9.25;9.00;3.00
26185;PMS7003;20067;48.764;9.176;2024-02-14T04:13:03;8.50;8.00;3.00
26185;PMS7003;20067;48.764;9.176;2024-02-14T04:15:29;9.00;8.00;3.00
26185;PMS7003;20067;48.764;9.176;2024-02-14T04:17:58;7.00;7.00;3.25
26185;PMS7003;20067;48.764;9.176;2024-02-14T04:20:25;9.00;8.00;3.00
26185;PMS7003;20067;48.764;9.176;2024-02-14T04:22:51;8.00;8.00;2.50
26185;PMS7003;20067;48.764;9.176;2024-02-14T04:25:16;5.75;4.75;1.00
26185;PMS7003;20067;48.764;9.176;2024-02-14T04:27:43;9.25;8.00;3.00
26185;PMS7003;20067;48.764;9.176;2024-02-14T04:30:09;6.00;6.00;1.00
26185;PMS7003;20067;48.764;9.176;2024-02-14T04:32:35;8.00;8.00;3.00
26185;PMS7003;20067;48.764;9.176;2024-02-14T04:35:01;8.50;8.50;3.00
26185;PMS7003;20067;48.764;9.176;2024-02-14T04:37:27;8.25;8.25;4.00
26185;PMS7003;20067;48.764;9.176;2024-02-14T04:39:53;8.75;8.75;3.00
26185;PMS7003;20067;48.764;9.176;2024-02-14T04:42:18;12.50;8.75;3.00
26185;PMS7003;20067;48.764;9.176;2024-02-14T04:44:44;9.00;8.50;3.00
26185;PMS7003;20067;48.764;9.176;2024-02-14T04:47:10;8.00;8.00;3.00
26185;PMS7003;20067;48.764;9.176;2024-02-14T04:49:36;8.50;8.50;3.00
26185;PMS7003;20067;48.764;9.176;2024-02-14T04:52:02;8.75;8.75;3.75
26185;PMS7003;20067;48.764;9.176;2024-02-14T04:54:29;9.00;9.00;3.00
26185;PMS7003;20067;48.764;9.176;2024-02-14T04:56:55;8.00;8.00;3.00
26185;PMS7003;20067;48.764;9.176;2024-02-14T04:59:20;9.00;8.00;3.00
26185;PMS7003;20067;48.764;9.176;2024-02-14T05:01:46;9.75;8.25;3.00
26185;PMS7003;20067;48.764;9.176;2024-02-14T05:04:11;8.75;8.75;3.75
26185;PMS7003;20067;48.764;9.176;2024-02-14T05:06:38;9.00;8.50;3.00
26185;PMS7003;20067;48.764;9.176;2024-02-14T05:09:04;10.50;9.00;3.25
26185;PMS7003;20067;48.764;9.176;2024-02-14T05:11:30;8.25;8.25;3.25
26185;PMS7003;20067;48.764;9.176;2024-02-14T05:13:56;6.00;6.00;2.00
26185;PMS7003;20067;48.764;9.176;2024-02-14T05:16:21;8.50;8.00;3.00
26185;PMS7003;20067;48.764;9.176;2024-02-14T05:18:47;7.00;7.00;3.00
26185;PMS7003;20067;48.764;9.176;2024-02-14T05:21:13;7.50;7.50;1.50
26185;PMS7003;20067;48.764;9.176;2024-02-14T05:23:39;6.00;6.00;1.00
26185;PMS7003;20067;48.764;9.176;2024-02-14T05:26:05;6.00;6.00;1.50
26185;PMS7003;20067;48.764;9.176;2024-02-14T05:28:31;6.00;5.50;1.00
26185;PMS7003;20067;48.764;9.176;2024-02-14T05:30:57;11.00;6.00;3.00
26185;PMS7003;20067;48.764;9.176;2024-02-14T05:33:24;8.25;8.25;3.00
26185;PMS7003;20067;48.764;9.176;2024-02-14T05:35:50;9.50;8.00;3.00
26185;PMS7003;20067;48.764;9.176;2024-02-14T05:38:16;8.75;6.75;1.00
26185;PMS7003;20067;48.764;9.176;2024-02-14T05:40:44;9.00;8.50;3.00
26185;PMS7003;20067;48.764;9.176;2024-02-14T05:43:10;8.25;8.25;3.00
26185;PMS7003;20067;48.764;9.176;2024-02-14T05:45:36;8.00;8.00;3.00
26185;PMS7003;20067;48.764;9.176;2024-02-14T05:48:02;7.25;7.25;3.00
26185;PMS7003;20067;48.764;9.176;2024-02-14T05:50:28;8.00;8.00;3.00
26185;PMS7003;20067;48.764;9.176;2024-02-14T05:52:54;8.00;8.00;3.00
26185;PMS7003;20067;48.764;9.176;2024-02-14T05:55:22;10.25;7.75;3.00
26185;PMS7003;20067;48.764;9.176;2024-02-14T05:57:48;9.00;6.00;1.00
26185;PMS7003;20067;48.764;9.176;2024-02-14T06:00:13;7.25;7.00;2.00
26185;PMS7003;20067;48.764;9.176;2024-02-14T06:02:39;7.75;7.75;3.00
26185;PMS7003;20067;48.764;9.176;2024-02-14T06:05:06;7.00;6.00;3.00
26185;PMS7003;20067;48.764;9.176;2024-02-14T06:07:35;6.00;6.00;3.00
26185;PMS7003;20067;48.764;9.176;2024-02-14T06:10:03;7.75;6.25;3.00
26185;PMS7003;20067;48.764;9.176;2024-02-14T06:12:31;8.50;8.00;3.00
26185;PMS7003;20067;48.764;9.176;2024-02-14T06:14:57;8.50;8.00;3.00
26185;PMS7003;20067;48.764;9.176;2024-02-14T06:17:23;8.00;8.00;3.00
26185;PMS7003;20067;48.764;9.176;2024-02-14T06:19:48;8.00;8.00;3.75
26185;PMS7003;20067;48.764;9.176;2024-02-14T06:22:14;7.50;7.50;3.00
26185;PMS7003;20067;48.764;9.176;2024-02-14T06:24:39;9.00;8.00;3.00
26185;PMS7003;20067;48.764;9.176;2024-02-14T06:27:06;8.25;8.00;3.00
26185;PMS7003;20067;48.764;9.176;2024-02-14T06:29:32;8.50;8.50;4.00
26185;PMS7003;20067;48.764;9.176;2024-02-14T06:31:57;12.50;9.00;3.25
26185;PMS7003;20067;48.764;9.176;2024-02-14T06:34:23;9.00;9.00;3.75
26185;PMS7003;20067;48.764;9.176;2024-02-14T06:36:50;12.75;8.00;3.00
26185;PMS7003;20067;48.764;9.176;2024-02-14T06:39:16;8.00;7.50;3.00
26185;PMS7003;20067;48.764;9.176;2024-02-14T06:41:42;8.75;8.75;2.50
26185;PMS7003;20067;48.764;9.176;2024-02-14T06:44:10;6.00;6.00;1.00
26185;PMS7003;20067;48.764;9.176;2024-02-14T06:46:35;5.50;5.50;2.00
26185;PMS7003;20067;48.764;9.176;2024-02-14T06:49:02;8.00;8.00;2.50
26185;PMS7003;20067;48.764;9.176;2024-02-14T06:51:28;7.50;6.50;3.00
26185;PMS7003;20067;48.764;9.176;2024-02-14T06:53:55;6.00;5.50;1.00
26185;PMS7003;20067;48.764;9.176;2024-02-14T06:56:21;8.00;5.75;1.00
26185;PMS7003;20067;48.764;9.176;2024-02-14T06:58:47;6.00;4.00;1.00
26185;PMS7003;20067;48.764;9.176;2024-02-14T07:01:17;7.00;7.00;1.00
26185;PMS7003;20067;48.764;9.176;2024-02-14T07:03:47;7.50;7.00;3.00
26185;PMS7003;20067;48.764;9.176;2024-02-14T07:06:12;5.50;5.50;1.00
26185;PMS7003;20067;48.764;9.176;2024-02-14T07:08:41;5.25;5.25;0.75
26185;PMS7003;20067;48.764;9.176;2024-02-14T07:11:07;4.00;4.00;1.00
26185;PMS7003;20067;48.764;9.176;2024-02-14T07:13:33;6.50;6.50;1.00
26185;PMS7003;20067;48.764;9.176;2024-02-14T07:15:58;6.50;4.25;1.00
26185;PMS7003;20067;48.764;9.176;2024-02-14T07:18:24;6.00;6.00;1.00
26185;PMS7003;20067;48.764;9.176;2024-02-14T07:20:49;10.00;8.00;1.50
26185;PMS7003;20067;48.764;9.176;2024-02-14T07:23:17;9.50;6.50;1.00
26185;PMS7003;20067;48.764;9.176;2024-02-14T07:25:45;4.00;4.00;0.00
26185;PMS7003;20067;48.764;9.176;2024-02-14T07:28:11;6.00;4.00;1.00
26185;PMS7003;20067;48.764;9.176;2024-02-14T07:30:37;6.00;6.00;1.00
26185;PMS7003;20067;48.764;9.176;2024-02-14T07:33:02;5.00;5.00;1.00
26185;PMS7003;20067;48.764;9.176;2024-02-14T07:35:28;5.00;5.00;0.75
26185;PMS7003;20067;48.764;9.176;2024-02-14T07:37:54;6.00;6.00;1.00
26185;PMS7003;20067;48.764;9.176;2024-02-14T07:40:21;6.00;5.50;1.00
26185;PMS7003;20067;48.764;9.176;2024-02-14T07:42:47;4.00;4.00;1.00
26185;PMS7003;20067;48.764;9.176;2024-02-14T07:45:13;4.00;4.00;1.00
26185;PMS7003;20067;48.764;9.176;2024-02-14T07:47:39;7.75;6.75;1.00
26185;PMS7003;20067;48.764;9.176;2024-02-14T07:50:05;6.00;6.00;1.00
26185;PMS7003;20067;48.764;9.176;2024-02-14T07:52:31;5.00;5.00;1.00
26185;PMS7003;20067;48.764;9.176;2024-02-14T07:54:57;4.00;4.00;1.00
26185;PMS7003;20067;48.764;9.176;2024-02-14T07:57:23;6.00;6.00;1.50
26185;PMS7003;20067;48.764;9.176;2024-02-14T07:59:49;6.00;6.00;1.00
26185;PMS7003;20067;48.764;9.176;2024-02-14T08:02:17;7.00;6.00;1.00
26185;PMS7003;20067;48.764;9.176;2024-02-14T08:04:43;6.00;6.00;1.00
26185;PMS7003;20067;48.764;9.176;2024-02-14T08:07:09;7.00;6.50;3.00
26185;PMS7003;20067;48.764;9.176;2024-02-14T08:09:35;7.00;6.00;1.00
26185;PMS7003;20067;48.764;9.176;2024-02-14T08:12:02;6.00;6.00;1.00
26185;PMS7003;20067;48.764;9.176;2024-02-14T08:14:27;6.00;4.00;1.00
26185;PMS7003;20067;48.764;9.176;2024-02-14T08:16:53;6.00;6.00;1.00
26185;PMS7003;20067;48.764;9.176;2024-02-14T08:19:18;6.25;6.00;1.00
26185;PMS7003;20067;48.764;9.176;2024-02-14T08:21:44;6.25;6.25;2.75
26185;PMS7003;20067;48.764;9.176;2024-02-14T08:24:10;6.50;6.00;1.50
26185;PMS7003;20067;48.764;9.176;2024-02-14T08:26:36;7.25;7.25;3.25
26185;PMS7003;20067;48.764;9.176;2024-02-14T08:29:02;7.00;5.00;2.00
26185;PMS7003;20067;48.764;9.176;2024-02-14T08:31:28;7.50;5.25;1.00
26185;PMS7003;20067;48.764;9.176;2024-02-14T08:33:54;7.00;5.50;1.25
26185;PMS7003;20067;48.764;9.176;2024-02-14T08:36:20;4.00;4.00;1.00
26185;PMS7003;20067;48.764;9.176;2024-02-14T08:38:45;5.25;5.25;1.75
26185;PMS7003;20067;48.764;9.176;2024-02-14T08:41:11;7.00;5.00;1.50
26185;PMS7003;20067;48.764;9.176;2024-02-14T08:43:37;5.00;5.00;1.25
26185;PMS7003;20067;48.764;9.176;2024-02-14T08:46:03;4.50;4.50;1.00
26185;PMS7003;20067;48.764;9.176;2024-02-14T08:48:35;7.00;4.75;1.00
26185;PMS7003;20067;48.764;9.176;2024-02-14T08:51:01;7.50;5.25;1.00
26185;PMS7003;20067;48.764;9.176;2024-02-14T08:53:29;4.00;4.00;1.00
26185;PMS7003;20067;48.764;9.176;2024-02-14T08:55:54;5.00;5.00;1.00
26185;PMS7003;20067;48.764;9.176;2024-02-14T08:58:20;4.50;4.50;1.00
26185;PMS7003;20067;48.764;9.176;2024-02-14T09:00:47;5.00;5.00;0.75
26185;PMS7003;20067;48.764;9.176;2024-02-14T09:03:13;5.00;5.00;1.00
26185;PMS7003;20067;48.764;9.176;2024-02-14T09:05:39;4.25;4.25;1.00
26185;PMS7003;20067;48.764;9.176;2024-02-14T09:08:04;6.50;4.00;1.00
26185;PMS7003;20067;48.764;9.176;2024-02-14T09:10:30;5.25;5.25;1.00
26185;PMS7003;20067;48.764;9.176;2024-02-14T09:12:56;6.00;5.75;1.00
26185;PMS7003;20067;48.764;9.176;2024-02-14T09:15:21;6.00;6.00;1.00
26185;PMS7003;20067;48.764;9.176;2024-02-14T09:17:47;6.00;4.00;1.00
26185;PMS7003;20067;48.764;9.176;2024-02-14T09:20:13;4.00;4.00;1.00
26185;PMS7003;20067;48.764;9.176;2024-02-14T09:22:39;8.50;5.00;1.00
26185;PMS7003;20067;48.764;9.176;2024-02-14T09:25:06;7.00;7.00;1.00
26185;PMS7003;20067;48.764;9.176;2024-02-14T09:27:34;4.00;4.00;1.00
26185;PMS7003;20067;48.764;9.176;2024-02-14T09:30:00;6.00;6.00;1.00
26185;PMS7003;20067;48.764;9.176;2024-02-14T09:32:31;4.00;4.00;1.00
26185;PMS7003;20067;48.764;9.176;2024-02-14T09:34:57;4.00;4.00;0.75
26185;PMS7003;20067;48.764;9.176;2024-02-14T09:37:23;6.75;6.00;1.00
26185;PMS7003;20067;48.764;9.176;2024-02-14T09:39:49;6.00;6.00;1.00
26185;PMS7003;20067;48.764;9.176;2024-02-14T09:42:15;5.00;4.00;1.00
26185;PMS7003;20067;48.764;9.176;2024-02-14T09:44:44;4.00;4.00;0.75
26185;PMS7003;20067;48.764;9.176;2024-02-14T09:47:11;6.75;4.00;0.00
26185;PMS7003;20067;48.764;9.176;2024-02-14T09:49:38;6.75;5.25;1.25
26185;PMS7003;20067;48.764;9.176;2024-02-14T09:52:06;6.00;6.00;1.00
26185;PMS7003;20067;48.764;9.176;2024-02-14T09:54:33;9.50;7.00;2.50
26185;PMS7003;20067;48.764;9.176;2024-02-14T09:56:59;4.00;4.00;1.00
26185;PMS7003;20067;48.764;9.176;2024-02-14T09:59:27;6.50;6.50;3.00
26185;PMS7003;20067;48.764;9.176;2024-02-14T10:01:54;6.00;6.00;1.00
26185;PMS7003;20067;48.764;9.176;2024-02-14T10:04:20;4.00;4.00;1.00
26185;PMS7003;20067;48.764;9.176;2024-02-14T10:06:47;4.50;4.50;1.00
26185;PMS7003;20067;48.764;9.176;2024-02-14T10:09:17;5.00;5.00;1.00
26185;PMS7003;20067;48.764;9.176;2024-02-14T10:11:47;4.00;4.00;1.00
26185;PMS7003;20067;48.764;9.176;2024-02-14T10:14:13;5.00;5.00;1.00
26185;PMS7003;20067;48.764;9.176;2024-02-14T10:16:38;6.00;4.50;1.00
26185;PMS7003;20067;48.764;9.176;2024-02-14T10:19:04;7.25;7.00;1.00
26185;PMS7003;20067;48.764;9.176;2024-02-14T10:21:32;4.50;4.50;1.00
26185;PMS7003;20067;48.764;9.176;2024-02-14T10:24:01;7.25;4.75;0.75
26185;PMS7003;20067;48.764;9.176;2024-02-14T10:26:28;4.00;4.00;1.00
26185;PMS7003;20067;48.764;9.176;2024-02-14T10:28:56;4.00;4.00;0.00
26185;PMS7003;20067;48.764;9.176;2024-02-14T10:31:25;4.00;4.00;1.00
26185;PMS7003;20067;48.764;9.176;2024-02-14T10:33:52;4.00;4.00;0.00
26185;PMS7003;20067;48.764;9.176;2024-02-14T10:36:19;5.75;4.25;1.00
26185;PMS7003;20067;48.764;9.176;2024-02-14T10:38:46;5.80;3.20;0.00
26185;PMS7003;20067;48.764;9.176;2024-02-14T10:41:14;4.00;4.00;0.25
26185;PMS7003;20067;48.764;9.176;2024-02-14T10:43:41;2.00;2.00;0.00
26185;PMS7003;20067;48.764;9.176;2024-02-14T10:46:12;4.00;4.00;1.00
26185;PMS7003;20067;48.764;9.176;2024-02-14T10:48:53;3.50;3.50;0.25
26185;PMS7003;20067;48.764;9.176;2024-02-14T10:51:21;4.00;4.00;1.00
26185;PMS7003;20067;48.764;9.176;2024-02-14T10:53:49;3.50;2.00;0.00
26185;PMS7003;20067;48.764;9.176;2024-02-14T10:56:18;4.00;4.00;1.00
26185;PMS7003;20067;48.764;9.176;2024-02-14T10:58:47;3.20;3.00;0.00
26185;PMS7003;20067;48.764;9.176;2024-02-14T11:01:14;5.00;3.20;1.00
26185;PMS7003;20067;48.764;9.176;2024-02-14T11:03:43;4.60;2.20;0.00
26185;PMS7003;20067;48.764;9.176;2024-02-14T11:06:15;3.60;3.00;0.00
26185;PMS7003;20067;48.764;9.176;2024-02-14T11:08:41;4.00;3.80;0.00
26185;PMS7003;20067;48.764;9.176;2024-02-14T11:11:07;4.00;4.00;1.00
26185;PMS7003;20067;48.764;9.176;2024-02-14T11:13:33;4.00;4.00;0.00
26185;PMS7003;20067;48.764;9.176;2024-02-14T11:16:01;5.00;5.00;1.00
26185;PMS7003;20067;48.764;9.176;2024-02-14T11:18:28;3.50;2.50;0.00
26185;PMS7003;20067;48.764;9.176;2024-02-14T11:20:59;2.40;2.40;0.20
26185;PMS7003;20067;48.764;9.176;2024-02-14T11:23:29;4.00;4.00;0.80
26185;PMS7003;20067;48.764;9.176;2024-02-14T11:26:05;4.00;4.00;0.00
26185;PMS7003;20067;48.764;9.176;2024-02-14T11:28:36;4.00;4.00;0.00
26185;PMS7003;20067;48.764;9.176;2024-02-14T11:31:04;4.00;4.00;0.00
26185;PMS7003;20067;48.764;9.176;2024-02-14T11:33:34;4.00;4.00;1.00
26185;PMS7003;20067;48.764;9.176;2024-02-14T11:36:01;2.00;2.00;0.00
26185;PMS7003;20067;48.764;9.176;2024-02-14T11:38:35;5.00;4.75;0.50
26185;PMS7003;20067;48.764;9.176;2024-02-14T11:41:01;2.00;2.00;0.00
26185;PMS7003;20067;48.764;9.176;2024-02-14T11:43:28;2.00;2.00;0.00
26185;PMS7003;20067;48.764;9.176;2024-02-14T11:45:55;3.50;2.00;0.00
26185;PMS7003;20067;48.764;9.176;2024-02-14T11:48:21;4.00;3.00;0.00
26185;PMS7003;20067;48.764;9.176;2024-02-14T11:50:48;3.50;2.00;0.00
26185;PMS7003;20067;48.764;9.176;2024-02-14T11:53:18;4.75;4.00;0.00
26185;PMS7003;20067;48.764;9.176;2024-02-14T11:55:46;4.00;3.50;0.00
26185;PMS7003;20067;48.764;9.176;2024-02-14T11:58:14;3.00;3.00;0.00
26185;PMS7003;20067;48.764;9.176;2024-02-14T12:00:42;4.00;4.00;0.50
26185;PMS7003;20067;48.764;9.176;2024-02-14T12:03:12;2.00;2.00;0.00
26185;PMS7003;20067;48.764;9.176;2024-02-14T12:05:51;4.00;4.00;0.00
26185;PMS7003;20067;48.764;9.176;2024-02-14T12:08:17;4.00;4.00;0.00
26185;PMS7003;20067;48.764;9.176;2024-02-14T12:10:44;4.00;4.00;0.00
26185;PMS7003;20067;48.764;9.176;2024-02-14T12:13:14;2.50;2.50;0.00
26185;PMS7003;20067;48.764;9.176;2024-02-14T12:15:44;2.00;2.00;0.00
26185;PMS7003;20067;48.764;9.176;2024-02-14T12:18:11;3.00;3.00;0.00
26185;PMS7003;20067;48.764;9.176;2024-02-14T12:20:38;4.00;4.00;0.00
26185;PMS7003;20067;48.764;9.176;2024-02-14T12:23:07;2.00;2.00;0.00
26185;PMS7003;20067;48.764;9.176;2024-02-14T12:25:39;2.00;2.00;0.00
26185;PMS7003;20067;48.764;9.176;2024-02-14T12:28:05;4.00;4.00;0.75
26185;PMS7003;20067;48.764;9.176;2024-02-14T12:30:44;4.00;4.00;0.25
26185;PMS7003;20067;48.764;9.176;2024-02-14T12:33:16;4.00;4.00;0.00
26185;PMS7003;20067;48.764;9.176;2024-02-14T12:35:43;2.00;2.00;0.00
26185;PMS7003;20067;48.764;9.176;2024-02-14T12:38:10;5.00;5.00;1.00
26185;PMS7003;20067;48.764;9.176;2024-02-14T12:40:38;2.00;2.00;0.00
26185;PMS7003;20067;48.764;9.176;2024-02-14T12:43:10;2.00;2.00;0.00
26185;PMS7003;20067;48.764;9.176;2024-02-14T12:45:40;4.75;4.00;0.25
26185;PMS7003;20067;48.764;9.176;2024-02-14T12:48:08;2.00;2.00;0.00
26185;PMS7003;20067;48.764;9.176;2024-02-14T12:50:35;4.75;4.00;0.00
26185;PMS7003;20067;48.764;9.176;2024-02-14T12:53:06;4.00;4.00;1.00
26185;PMS7003;20067;48.764;9.176;2024-02-14T12:55:33;4.00;4.00;1.00
26185;PMS7003;20067;48.764;9.176;2024-02-14T12:58:00;2.00;2.00;0.00
26185;PMS7003;20067;48.764;9.176;2024-02-14T13:00:26;3.50;3.50;0.00
26185;PMS7003;20067;48.764;9.176;2024-02-14T13:02:55;2.50;2.50;0.00
26185;PMS7003;20067;48.764;9.176;2024-02-14T13:05:21;4.00;4.00;0.00
26185;PMS7003;20067;48.764;9.176;2024-02-14T13:07:46;2.00;2.00;0.00
26185;PMS7003;20067;48.764;9.176;2024-02-14T13:10:12;5.50;5.25;1.25
26185;PMS7003;20067;48.764;9.176;2024-02-14T13:12:38;4.00;4.00;1.00
26185;PMS7003;20067;48.764;9.176;2024-02-14T13:15:05;4.00;4.00;0.00
26185;PMS7003;20067;48.764;9.176;2024-02-14T13:17:31;3.25;3.25;0.00
26185;PMS7003;20067;48.764;9.176;2024-02-14T13:19:57;5.00;4.00;0.75
26185;PMS7003;20067;48.764;9.176;2024-02-14T13:22:28;4.00;4.00;0.00
26185;PMS7003;20067;48.764;9.176;2024-02-14T13:24:53;2.00;2.00;0.00
26185;PMS7003;20067;48.764;9.176;2024-02-14T13:27:21;2.00;2.00;0.00
26185;PMS7003;20067;48.764;9.176;2024-02-14T13:29:51;2.00;2.00;0.00
26185;PMS7003;20067;48.764;9.176;2024-02-14T13:32:17;2.00;2.00;0.00
26185;PMS7003;20067;48.764;9.176;2024-02-14T13:34:43;2.50;2.50;0.00
26185;PMS7003;20067;48.764;9.176;2024-02-14T13:37:09;2.00;2.00;0.00
26185;PMS7003;20067;48.764;9.176;2024-02-14T13:39:35;3.25;2.00;0.00
26185;PMS7003;20067;48.764;9.176;2024-02-14T13:42:01;2.25;2.25;0.00
26185;PMS7003;20067;48.764;9.176;2024-02-14T13:44:30;2.50;2.50;0.00
26185;PMS7003;20067;48.764;9.176;2024-02-14T13:46:56;2.00;2.00;0.00
26185;PMS7003;20067;48.764;9.176;2024-02-14T13:49:22;2.80;2.00;0.00
26185;PMS7003;20067;48.764;9.176;2024-02-14T13:51:48;4.50;4.00;0.00
26185;PMS7003;20067;48.764;9.176;2024-02-14T13:54:16;2.00;2.00;0.00
26185;PMS7003;20067;48.764;9.176;2024-02-14T13:56:42;2.00;2.00;0.00
26185;PMS7003;20067;48.764;9.176;2024-02-14T13:59:08;2.00;2.00;0.00
26185;PMS7003;20067;48.764;9.176;2024-02-14T14:01:37;2.00;2.00;0.00
26185;PMS7003;20067;48.764;9.176;2024-02-14T14:04:07;2.00;2.00;0.00
26185;PMS7003;20067;48.764;9.176;2024-02-14T14:06:33;2.00;2.00;0.00
26185;PMS7003;20067;48.764;9.176;2024-02-14T14:08:59;2.00;2.00;0.00
26185;PMS7003;20067;48.764;9.176;2024-02-14T14:11:27;2.00;2.00;0.00
26185;PMS7003;20067;48.764;9.176;2024-02-14T14:13:53;2.00;2.00;0.00
26185;PMS7003;20067;48.764;9.176;2024-02-14T14:16:19;2.00;2.00;0.00